Terminal Aerodrome Forecast
Issued by NWS Charleston, WV

Current Version | Previous Version | Graphics & Text | Print | Product List | Glossary On
Versions: 1 2 3 4 5 6 7 8 9 10 11 12 13 14 15 16 17 18 19 20 21
599
FTUS41 KRLX 041720
TAFBKW
TAF
KBKW 041720Z 0418/0518 29005KT P6SM SCT025 BKN035
     FM042100 32007KT P6SM OVC025
     FM050200 33007KT 6SM -SHSN BKN015
     FM050700 32008KT P6SM BKN015
     FM051400 32007KT P6SM SCT020 BKN250=

USA.gov is the U.S. government's official web portal to all federal, state and local government web resources and services.